Michipicoten — CFG8060 — position and weather

sailwx.info

Track history (hours):
 
Tides and Currents Weather Stations Pressure Air Temp Water Temp Dewpoint Dewpoint Depression Visibility Wind Speed Wind Dir Waves Ship Positions

Michipicoten

Last reported at 2016-Aug-30 12:17 UTC. Time now 2016-Aug-30 20:51 UTC.
Position N 46°31' W 084°23'.

Length 213 m; draft 6.7 m.

Type: Cargo ship. MMSI: 316002501.

Date/timePositionNaut miles runAvg speedWind from/ knotsBaromVisibWave heightAir tempDewpointWater temp
2016-Aug-30 12:17N 46°31' W 084°23'0 0.0
2016-Aug-30 06:33N 46°31' W 084°23'0 0.0
2016-Aug-30 05:33N 46°31' W 084°23'0 0.0
2016-Aug-30 04:33N 46°31' W 084°23'0 0.0
2016-Aug-30 03:29N 46°31' W 084°23'0 0.0
2016-Aug-30 02:26N 46°31' W 084°23'0 0.0
2016-Aug-30 01:33N 46°31' W 084°23'0 0.0
2016-Aug-29 20:33N 46°31' W 084°23'0 0.0
2016-Aug-29 15:05N 46°31' W 084°23'0 0.0
2016-Aug-29 12:24N 46°31' W 084°23'0 0.0
2016-Aug-29 11:32N 46°31' W 084°23'0 0.0
2016-Aug-29 10:33N 46°31' W 084°23'0 0.0
2016-Aug-29 09:33N 46°31' W 084°23'0 0.0
2016-Aug-29 08:33N 46°31' W 084°23'0 0.0
2016-Aug-29 07:32N 46°31' W 084°23'0 0.0
2016-Aug-29 06:32N 46°31' W 084°23'0 0.0
2016-Aug-29 05:33N 46°31' W 084°23'0 0.0
2016-Aug-29 04:33N 46°31' W 084°23'0 0.0
2016-Aug-29 03:29N 46°31' W 084°23'0 0.0
2016-Aug-29 02:32N 46°31' W 084°23'22 1.8
2016-Aug-28 14:05N 46°12' W 084°07'20 7.9
2016-Aug-28 11:32N 45°52' W 084°04'1312.9
2016-Aug-28 10:33N 45°51' W 084°22'1313.2
2016-Aug-28 09:33N 45°49' W 084°41'1313.1
2016-Aug-28 08:33N 45°50' W 084°60'9 9.4
2016-Aug-28 07:33N 45°44' W 085°11'1313.0
2016-Aug-28 06:33N 45°33' W 085°21'1313.1
2016-Aug-28 05:33N 45°23' W 085°32'1313.1
2016-Aug-28 04:34N 45°12' W 085°43'35 1.0
2016-Aug-26 17:34N 45°47' W 085°50'1212.4
2016-Aug-26 16:34N 45°53' W 085°35'1212.2
2016-Aug-26 15:33N 45°53' W 085°17'1212.4
2016-Aug-26 14:34N 45°51' W 084°59'1212.1
2016-Aug-26 13:34N 45°49' W 084°42'1211.9
2016-Aug-26 12:33N 45°52' W 084°26'1212.3
2016-Aug-26 11:33N 45°50' W 084°08'1212.4
2016-Aug-26 10:33N 45°49' W 083°50'26 2.3
2016-Aug-25 23:06N 45°55' W 083°13'24 4.0
2016-Aug-25 17:04N 45°45' W 083°45'713.7
2016-Aug-25 16:32N 45°49' W 083°53'2311.7
2016-Aug-25 14:33N 46°11' W 084°05'9 9.0
2016-Aug-25 13:32N 46°18' W 084°13'61 1.5
2016-Aug-23 20:24N 46°48' W 085°31'  
Track history (hours):
 
Tides and Currents Weather Stations Pressure Air Temp Water Temp Dewpoint Dewpoint Depression Visibility Wind Speed Wind Dir Waves Ship Positions

Michipicoten

Last reported at 2016-Aug-30 12:17 UTC. Time now 2016-Aug-30 20:51 UTC.
Position N 46°31' W 084°23'.

Length 213 m; draft 6.7 m.

Type: Cargo ship. MMSI: 316002501.

Date/timePositionNaut miles runAvg speedWind from/ knotsBaromVisibWave heightAir tempDewpointWater temp
2016-Aug-30 12:17N 46°31' W 084°23'0 0.0
2016-Aug-30 06:33N 46°31' W 084°23'0 0.0
2016-Aug-30 05:33N 46°31' W 084°23'0 0.0
2016-Aug-30 04:33N 46°31' W 084°23'0 0.0
2016-Aug-30 03:29N 46°31' W 084°23'0 0.0
2016-Aug-30 02:26N 46°31' W 084°23'0 0.0
2016-Aug-30 01:33N 46°31' W 084°23'0 0.0
2016-Aug-29 20:33N 46°31' W 084°23'0 0.0
2016-Aug-29 15:05N 46°31' W 084°23'0 0.0
2016-Aug-29 12:24N 46°31' W 084°23'0 0.0
2016-Aug-29 11:32N 46°31' W 084°23'0 0.0
2016-Aug-29 10:33N 46°31' W 084°23'0 0.0
2016-Aug-29 09:33N 46°31' W 084°23'0 0.0
2016-Aug-29 08:33N 46°31' W 084°23'0 0.0
2016-Aug-29 07:32N 46°31' W 084°23'0 0.0
2016-Aug-29 06:32N 46°31' W 084°23'0 0.0
2016-Aug-29 05:33N 46°31' W 084°23'0 0.0
2016-Aug-29 04:33N 46°31' W 084°23'0 0.0
2016-Aug-29 03:29N 46°31' W 084°23'0 0.0
2016-Aug-29 02:32N 46°31' W 084°23'22 1.8
2016-Aug-28 14:05N 46°12' W 084°07'20 7.9
2016-Aug-28 11:32N 45°52' W 084°04'1312.9
2016-Aug-28 10:33N 45°51' W 084°22'1313.2
2016-Aug-28 09:33N 45°49' W 084°41'1313.1
2016-Aug-28 08:33N 45°50' W 084°60'9 9.4
2016-Aug-28 07:33N 45°44' W 085°11'1313.0
2016-Aug-28 06:33N 45°33' W 085°21'1313.1
2016-Aug-28 05:33N 45°23' W 085°32'1313.1
2016-Aug-28 04:34N 45°12' W 085°43'35 1.0
2016-Aug-26 17:34N 45°47' W 085°50'1212.4
2016-Aug-26 16:34N 45°53' W 085°35'1212.2
2016-Aug-26 15:33N 45°53' W 085°17'1212.4
2016-Aug-26 14:34N 45°51' W 084°59'1212.1
2016-Aug-26 13:34N 45°49' W 084°42'1211.9
2016-Aug-26 12:33N 45°52' W 084°26'1212.3
2016-Aug-26 11:33N 45°50' W 084°08'1212.4
2016-Aug-26 10:33N 45°49' W 083°50'26 2.3
2016-Aug-25 23:06N 45°55' W 083°13'24 4.0
2016-Aug-25 17:04N 45°45' W 083°45'713.7
2016-Aug-25 16:32N 45°49' W 083°53'2311.7
2016-Aug-25 14:33N 46°11' W 084°05'9 9.0
2016-Aug-25 13:32N 46°18' W 084°13'61 1.5
2016-Aug-23 20:24N 46°48' W 085°31'  

Dump ship's entire track history